Time;durP1;ratioP1;P1;durP2;ratioP2;P2;SDS_P1;SDS_P2;PMS_P1;PMS_P2;Temp;Humidity;BMP_temperature;BMP_pressure;BME280_temperature;BME280_humidity;BME280_pressure;Samples;Min_cycle;Max_cycle;Signal;HPM_P1;HPM_P2
2023/09/04 00:01:39;;;;;;;;;;;18.60;74.60;;;;;;5091913;28;20371;-68
2023/09/04 00:04:06;;;;;;;;;;;18.70;74.70;;;;;;5092680;28;19920;-68
2023/09/04 00:06:31;;;;;;;;;;;18.60;74.60;;;;;;5091566;28;20015;-70
2023/09/04 00:08:57;;;;;;;;;;;18.60;74.60;;;;;;5092896;28;20007;-70
2023/09/04 00:11:26;;;;;;;;;;;18.60;74.60;;;;;;5091797;28;19935;-70
2023/09/04 00:13:51;;;;;;;;;;;18.60;74.60;;;;;;5091257;28;19980;-70
2023/09/04 00:16:17;;;;;;;;;;;18.60;74.60;;;;;;5091721;28;20328;-69
2023/09/04 00:18:42;;;;;;;;;;;18.60;74.60;;;;;;5125678;27;19920;-69
2023/09/04 00:21:07;;;;;;;;;;;18.60;74.60;;;;;;5091174;28;20287;-68
2023/09/04 00:23:33;;;;;;;;;;;18.60;74.50;;;;;;5092746;28;19951;-69
2023/09/04 00:25:58;;;;;;;;;;;18.60;74.50;;;;;;5091477;28;19920;-68
2023/09/04 00:28:24;;;;;;;;;;;18.60;74.60;;;;;;5092775;28;20371;-68
2023/09/04 00:30:50;;;;;;;;;;;18.60;74.50;;;;;;5092454;28;19920;-68
2023/09/04 00:33:15;;;;;;;;;;;18.50;74.50;;;;;;5090992;28;19924;-68
2023/09/04 00:35:41;;;;;;;;;;;18.50;74.50;;;;;;5092255;28;20367;-69
2023/09/04 00:38:06;;;;;;;;;;;18.50;74.40;;;;;;5092444;28;19970;-68
2023/09/04 00:40:34;;;;;;;;;;;18.50;74.40;;;;;;5091012;28;19964;-71
2023/09/04 00:43:00;;;;;;;;;;;18.50;74.40;;;;;;5091442;28;19983;-70
2023/09/04 00:45:25;;;;;;;;;;;18.50;74.40;;;;;;5125094;28;20383;-68
2023/09/04 00:47:51;;;;;;;;;;;18.50;74.40;;;;;;5091334;28;19920;-69
2023/09/04 00:50:21;;;;;;;;;;;18.50;74.40;;;;;;5090945;28;19966;-68
2023/09/04 00:52:47;;;;;;;;;;;18.50;74.40;;;;;;5091119;28;19924;-68
2023/09/04 00:55:13;;;;;;;;;;;18.50;74.40;;;;;;5090968;28;20010;-69
2023/09/04 00:57:38;;;;;;;;;;;18.40;74.30;;;;;;5125014;28;19974;-70
2023/09/04 01:00:09;;;;;;;;;;;18.50;74.40;;;;;;5092587;28;19920;-68
2023/09/04 01:02:35;;;;;;;;;;;18.50;74.40;;;;;;5090984;28;20007;-71
2023/09/04 01:05:00;;;;;;;;;;;18.40;74.30;;;;;;5092647;28;20054;-70
2023/09/04 01:07:26;;;;;;;;;;;18.40;74.30;;;;;;5090815;28;19932;-68
2023/09/04 01:09:51;;;;;;;;;;;18.40;74.30;;;;;;5091131;28;19927;-68
2023/09/04 01:12:20;;;;;;;;;;;18.40;74.30;;;;;;5092119;28;20295;-68
2023/09/04 01:14:47;;;;;;;;;;;18.40;74.30;;;;;;5092196;28;19927;-69
2023/09/04 01:17:12;;;;;;;;;;;18.40;74.30;;;;;;5090750;28;20027;-68
2023/09/04 01:19:38;;;;;;;;;;;18.40;74.30;;;;;;5091123;28;20448;-69
2023/09/04 01:22:05;;;;;;;;;;;18.40;74.30;;;;;;5090587;28;19920;-68
2023/09/04 01:24:31;;;;;;;;;;;18.40;74.30;;;;;;5092034;28;20311;-69
2023/09/04 01:27:16;;;;;;;;;;;18.40;74.30;;;;;;5090944;28;19920;-69
2023/09/04 01:30:01;;;;;;;;;;;18.40;74.30;;;;;;5092208;28;19943;-69
2023/09/04 01:35:09;;;;;;;;;;;18.40;74.30;;;;;;5110337;27;19919;-71
2023/09/04 01:37:36;;;;;;;;;;;18.40;74.20;;;;;;5109211;28;20016;-70
2023/09/04 01:40:03;;;;;;;;;;;18.40;74.30;;;;;;5108947;28;20485;-70
2023/09/04 01:42:28;;;;;;;;;;;18.30;74.20;;;;;;5109166;28;19966;-70
2023/09/04 01:44:54;;;;;;;;;;;18.30;74.20;;;;;;5108789;28;19971;-69
2023/09/04 01:47:19;;;;;;;;;;;18.30;74.20;;;;;;5108691;28;19927;-67
2023/09/04 01:49:45;;;;;;;;;;;18.30;74.20;;;;;;5109113;28;20283;-68
2023/09/04 01:52:11;;;;;;;;;;;18.30;74.10;;;;;;5110049;28;19927;-69
2023/09/04 01:54:36;;;;;;;;;;;18.30;74.10;;;;;;5108683;28;19938;-68
2023/09/04 01:57:02;;;;;;;;;;;18.30;74.10;;;;;;5109790;28;20373;-69
2023/09/04 01:59:27;;;;;;;;;;;18.30;74.10;;;;;;5108854;28;19920;-68
2023/09/04 02:01:53;;;;;;;;;;;18.30;74.10;;;;;;5108672;28;20014;-69
2023/09/04 02:04:18;;;;;;;;;;;18.30;74.10;;;;;;5108535;28;20288;-69
2023/09/04 02:06:44;;;;;;;;;;;18.30;74.00;;;;;;5108709;28;19969;-70
2023/09/04 02:09:09;;;;;;;;;;;18.30;74.00;;;;;;5109765;28;19924;-68
2023/09/04 02:11:35;;;;;;;;;;;18.30;74.00;;;;;;5108647;28;19947;-67
2023/09/04 02:14:00;;;;;;;;;;;18.30;74.00;;;;;;5109557;28;19931;-70
2023/09/04 02:16:27;;;;;;;;;;;18.30;74.00;;;;;;5109488;28;19920;-69
2023/09/04 02:18:55;;;;;;;;;;;18.30;74.00;;;;;;5108137;28;19920;-68
2023/09/04 02:21:20;;;;;;;;;;;18.30;74.00;;;;;;5108152;28;19930;-71
2023/09/04 02:23:46;;;;;;;;;;;18.30;74.00;;;;;;5109493;28;19927;-68
2023/09/04 02:26:11;;;;;;;;;;;18.30;73.90;;;;;;5108390;28;19920;-69
2023/09/04 02:28:37;;;;;;;;;;;18.30;74.00;;;;;;5109688;28;20341;-73
2023/09/04 02:31:04;;;;;;;;;;;18.30;73.90;;;;;;5109258;28;20467;-68
2023/09/04 02:33:30;;;;;;;;;;;18.20;73.80;;;;;;5107518;28;19981;-68
2023/09/04 02:35:56;;;;;;;;;;;18.30;73.90;;;;;;5108121;28;19924;-68
2023/09/04 02:38:22;;;;;;;;;;;18.20;73.80;;;;;;5109106;28;19946;-70
2023/09/04 02:40:48;;;;;;;;;;;18.20;73.80;;;;;;5108050;28;20371;-68
2023/09/04 02:43:13;;;;;;;;;;;18.20;73.80;;;;;;5142389;27;19919;-69
2023/09/04 02:45:39;;;;;;;;;;;18.30;73.80;;;;;;5098822;28;19947;-69
2023/09/04 02:48:05;;;;;;;;;;;18.20;73.80;;;;;;5094333;28;19927;-69
2023/09/04 02:50:30;;;;;;;;;;;18.20;73.80;;;;;;5095463;28;19920;-70
2023/09/04 02:52:56;;;;;;;;;;;18.20;73.80;;;;;;5095178;28;19963;-70
2023/09/04 02:55:21;;;;;;;;;;;18.20;73.70;;;;;;5095138;28;19927;-69
2023/09/04 02:57:47;;;;;;;;;;;18.20;73.70;;;;;;5095213;28;20387;-69
2023/09/04 03:00:13;;;;;;;;;;;18.20;73.70;;;;;;5094127;28;19920;-70
2023/09/04 03:02:38;;;;;;;;;;;18.20;73.60;;;;;;5093665;28;19924;-69
2023/09/04 03:05:04;;;;;;;;;;;18.20;73.60;;;;;;5094871;28;19920;-70
2023/09/04 03:07:30;;;;;;;;;;;18.20;73.60;;;;;;5093717;28;19924;-69
2023/09/04 03:09:56;;;;;;;;;;;18.20;73.50;;;;;;5076990;28;19920;-70
2023/09/04 03:12:23;;;;;;;;;;;18.20;73.50;;;;;;5095024;28;20283;-69
2023/09/04 03:14:53;;;;;;;;;;;18.20;73.40;;;;;;5093452;28;19924;-68
2023/09/04 03:17:19;;;;;;;;;;;18.20;73.40;;;;;;5093862;28;19920;-70
2023/09/04 03:19:44;;;;;;;;;;;18.20;73.30;;;;;;5093367;28;19942;-68
2023/09/04 03:22:10;;;;;;;;;;;18.20;73.30;;;;;;5094656;28;19986;-68
2023/09/04 03:24:35;;;;;;;;;;;18.30;73.30;;;;;;5094746;28;19966;-70
2023/09/04 03:27:01;;;;;;;;;;;18.20;73.20;;;;;;5093560;28;20006;-69
2023/09/04 03:29:26;;;;;;;;;;;18.20;73.10;;;;;;5094703;28;19927;-69
2023/09/04 03:31:52;;;;;;;;;;;18.30;73.10;;;;;;5094404;28;19920;-70
2023/09/04 03:34:18;;;;;;;;;;;18.30;73.10;;;;;;5092877;28;19970;-69
2023/09/04 03:36:45;;;;;;;;;;;18.30;73.00;;;;;;5093057;28;20447;-70
2023/09/04 03:39:11;;;;;;;;;;;18.30;73.00;;;;;;5094573;28;19967;-69
2023/09/04 03:41:36;;;;;;;;;;;18.30;73.00;;;;;;5094566;28;20001;-69
2023/09/04 03:44:02;;;;;;;;;;;18.20;73.00;;;;;;5093254;28;20268;-70
2023/09/04 03:46:27;;;;;;;;;;;18.20;72.90;;;;;;5093147;28;19920;-69
2023/09/04 03:48:53;;;;;;;;;;;18.20;72.90;;;;;;5092769;28;19927;-70
2023/09/04 03:51:18;;;;;;;;;;;18.20;72.90;;;;;;5094276;28;19980;-68
2023/09/04 03:53:44;;;;;;;;;;;18.20;72.90;;;;;;5094178;28;20398;-69
2023/09/04 03:56:09;;;;;;;;;;;18.20;72.80;;;;;;5092440;28;19923;-69
2023/09/04 03:58:35;;;;;;;;;;;18.20;72.80;;;;;;5092464;28;19953;-68
2023/09/04 04:01:00;;;;;;;;;;;18.20;72.80;;;;;;5093093;28;19924;-69
2023/09/04 04:03:26;;;;;;;;;;;18.20;72.90;;;;;;5092492;28;20303;-68
2023/09/04 04:05:51;;;;;;;;;;;18.20;72.80;;;;;;5092741;28;19920;-70
2023/09/04 04:08:17;;;;;;;;;;;18.20;72.80;;;;;;5093709;28;19974;-70
2023/09/04 04:10:44;;;;;;;;;;;18.20;72.80;;;;;;5126831;27;20014;-68
2023/09/04 04:13:09;;;;;;;;;;;18.20;72.80;;;;;;5092232;28;19970;-69
2023/09/04 04:15:35;;;;;;;;;;;18.10;72.70;;;;;;5092383;28;19963;-69
2023/09/04 04:18:01;;;;;;;;;;;18.20;72.80;;;;;;5126612;27;19927;-69
2023/09/04 04:20:26;;;;;;;;;;;18.10;72.70;;;;;;5093507;28;19927;-69
2023/09/04 04:22:52;;;;;;;;;;;18.20;72.80;;;;;;5093423;28;19919;-70
2023/09/04 04:25:17;;;;;;;;;;;18.10;72.70;;;;;;5092485;28;19962;-68
2023/09/04 04:27:44;;;;;;;;;;;18.10;72.60;;;;;;5126516;27;19920;-69
2023/09/04 04:30:09;;;;;;;;;;;18.10;72.70;;;;;;5092061;28;20011;-69
2023/09/04 04:32:35;;;;;;;;;;;18.10;72.60;;;;;;5091978;28;20011;-68
2023/09/04 04:35:01;;;;;;;;;;;18.10;72.60;;;;;;5091668;28;20012;-69
2023/09/04 04:37:26;;;;;;;;;;;18.20;72.60;;;;;;5091910;28;19969;-70
2023/09/04 04:39:52;;;;;;;;;;;18.10;72.60;;;;;;5092209;28;19920;-69
2023/09/04 04:42:18;;;;;;;;;;;18.10;72.60;;;;;;5092157;28;19965;-69
2023/09/04 04:44:43;;;;;;;;;;;18.10;72.60;;;;;;5091822;28;20394;-68
2023/09/04 04:47:09;;;;;;;;;;;18.10;72.50;;;;;;5091814;28;20044;-68
2023/09/04 04:49:35;;;;;;;;;;;18.10;72.50;;;;;;5093026;28;19920;-68
2023/09/04 04:52:00;;;;;;;;;;;18.10;72.50;;;;;;5125744;27;20011;-69
2023/09/04 04:54:26;;;;;;;;;;;18.10;72.50;;;;;;5091630;28;19930;-69
2023/09/04 04:56:51;;;;;;;;;;;18.10;72.50;;;;;;5091876;28;19920;-69
2023/09/04 04:59:17;;;;;;;;;;;18.10;72.50;;;;;;5092862;28;19951;-68
2023/09/04 05:01:43;;;;;;;;;;;18.10;72.50;;;;;;5125976;27;19920;-69
2023/09/04 05:04:08;;;;;;;;;;;18.10;72.50;;;;;;5091588;28;20426;-69
2023/09/04 05:06:34;;;;;;;;;;;18.00;72.40;;;;;;5091473;28;19920;-69
2023/09/04 05:08:59;;;;;;;;;;;18.10;72.50;;;;;;5091442;28;19924;-69
2023/09/04 05:11:25;;;;;;;;;;;18.10;72.50;;;;;;5091464;28;19920;-69
2023/09/04 05:13:50;;;;;;;;;;;18.00;72.40;;;;;;5091485;28;19928;-68
2023/09/04 05:16:16;;;;;;;;;;;18.00;72.40;;;;;;5091392;28;19969;-69
2023/09/04 05:18:41;;;;;;;;;;;18.00;72.40;;;;;;5091564;28;20014;-69
2023/09/04 05:21:07;;;;;;;;;;;18.00;72.40;;;;;;5092614;28;19920;-70
2023/09/04 05:23:33;;;;;;;;;;;18.00;72.40;;;;;;5092480;28;19920;-68
2023/09/04 05:25:59;;;;;;;;;;;18.00;72.40;;;;;;5091316;28;20373;-68
2023/09/04 05:28:24;;;;;;;;;;;18.00;72.40;;;;;;5090694;28;19920;-68
2023/09/04 05:30:50;;;;;;;;;;;18.00;72.40;;;;;;5090032;28;19924;-68
2023/09/04 05:33:16;;;;;;;;;;;18.00;72.30;;;;;;5097212;28;19923;-68
2023/09/04 05:35:41;;;;;;;;;;;18.00;72.30;;;;;;5112906;28;20368;-67
2023/09/04 05:38:07;;;;;;;;;;;18.00;72.70;;;;;;5112245;28;20638;-70
2023/09/04 05:40:33;;;;;;;;;;;18.00;72.30;;;;;;5088963;28;20010;-67
2023/09/04 05:42:59;;;;;;;;;;;18.00;72.30;;;;;;5090009;28;20298;-66
2023/09/04 05:45:24;;;;;;;;;;;18.00;72.20;;;;;;5115461;28;19926;-67
2023/09/04 05:47:50;;;;;;;;;;;18.00;72.10;;;;;;5093707;28;20379;-69
2023/09/04 05:50:15;;;;;;;;;;;18.00;72.20;;;;;;5111196;28;19919;-67
2023/09/04 05:52:41;;;;;;;;;;;18.00;72.20;;;;;;5091525;28;20371;-67
2023/09/04 05:55:07;;;;;;;;;;;18.00;72.20;;;;;;5092553;28;20315;-67
2023/09/04 05:57:33;;;;;;;;;;;18.10;72.30;;;;;;5111057;28;19924;-67
2023/09/04 05:59:59;;;;;;;;;;;18.10;72.30;;;;;;5121007;28;19919;-68
2023/09/04 06:02:26;;;;;;;;;;;18.10;72.30;;;;;;5091936;28;19950;-67
2023/09/04 06:04:52;;;;;;;;;;;18.10;72.20;;;;;;5087290;28;20428;-69
2023/09/04 06:07:18;;;;;;;;;;;18.10;72.20;;;;;;5122654;28;20026;-68
2023/09/04 06:09:44;;;;;;;;;;;18.10;72.20;;;;;;5117872;28;19929;-67
2023/09/04 06:12:11;;;;;;;;;;;18.10;72.30;;;;;;5086673;28;19924;-68
2023/09/04 06:14:37;;;;;;;;;;;18.10;72.30;;;;;;5083003;28;19932;-67
2023/09/04 06:17:02;;;;;;;;;;;18.10;72.30;;;;;;5077212;28;20313;-69
2023/09/04 06:19:28;;;;;;;;;;;18.20;72.40;;;;;;5088756;28;19924;-69
2023/09/04 06:21:54;;;;;;;;;;;18.20;72.40;;;;;;5094327;28;19971;-67
2023/09/04 06:24:19;;;;;;;;;;;18.20;72.60;;;;;;5073254;28;19954;-69
2023/09/04 06:26:45;;;;;;;;;;;18.20;72.70;;;;;;5060772;28;19928;-67
2023/09/04 06:29:10;;;;;;;;;;;18.20;72.60;;;;;;5072623;27;19927;-66
2023/09/04 06:31:36;;;;;;;;;;;18.20;72.60;;;;;;5104427;27;19924;-67
2023/09/04 06:34:03;;;;;;;;;;;18.30;72.60;;;;;;5089350;28;19923;-68
2023/09/04 06:36:29;;;;;;;;;;;18.30;72.60;;;;;;5091561;28;19920;-68
2023/09/04 06:38:54;;;;;;;;;;;18.30;72.60;;;;;;5078718;28;20390;-67
2023/09/04 06:41:21;;;;;;;;;;;18.30;72.50;;;;;;5074553;28;19928;-67
2023/09/04 06:43:47;;;;;;;;;;;18.30;72.60;;;;;;5092308;28;19928;-69
2023/09/04 06:46:13;;;;;;;;;;;18.30;72.60;;;;;;5083556;28;19924;-67
2023/09/04 06:48:39;;;;;;;;;;;18.30;72.70;;;;;;5075986;27;19984;-67
2023/09/04 06:51:04;;;;;;;;;;;18.30;72.80;;;;;;5073177;27;20719;-71
2023/09/04 06:53:30;;;;;;;;;;;18.30;72.80;;;;;;5093952;27;19966;-67
2023/09/04 06:55:55;;;;;;;;;;;18.30;72.80;;;;;;5077250;28;20416;-67
2023/09/04 06:58:22;;;;;;;;;;;18.30;72.80;;;;;;5091292;28;19927;-71
2023/09/04 07:00:47;;;;;;;;;;;18.30;72.80;;;;;;5074212;28;19920;-70
2023/09/04 07:03:13;;;;;;;;;;;18.40;73.10;;;;;;5086999;28;20569;-71
2023/09/04 07:05:38;;;;;;;;;;;18.40;73.20;;;;;;5073817;28;20030;-71
2023/09/04 07:08:04;;;;;;;;;;;18.40;73.30;;;;;;5073884;28;19920;-72
2023/09/04 07:10:30;;;;;;;;;;;18.40;73.30;;;;;;5077758;28;19960;-72
2023/09/04 07:12:56;;;;;;;;;;;18.40;73.30;;;;;;5075765;28;20306;-68
2023/09/04 07:15:21;;;;;;;;;;;18.50;73.40;;;;;;5093027;28;19935;-67
2023/09/04 07:17:47;;;;;;;;;;;18.50;73.40;;;;;;5093268;28;19967;-67
2023/09/04 07:20:13;;;;;;;;;;;18.50;73.40;;;;;;5110427;27;19931;-72
2023/09/04 07:22:38;;;;;;;;;;;18.50;73.40;;;;;;5091998;28;19920;-67
2023/09/04 07:25:05;;;;;;;;;;;18.60;73.50;;;;;;5072892;28;19931;-68
2023/09/04 07:27:31;;;;;;;;;;;18.60;73.50;;;;;;5074999;27;19927;-68
2023/09/04 07:29:58;;;;;;;;;;;18.60;73.50;;;;;;5074080;28;20361;-70
2023/09/04 07:32:25;;;;;;;;;;;18.60;73.60;;;;;;5082113;28;19942;-67
2023/09/04 07:34:55;;;;;;;;;;;18.60;73.60;;;;;;5091230;28;19936;-67
2023/09/04 07:37:22;;;;;;;;;;;18.60;73.70;;;;;;5081307;28;19920;-68
2023/09/04 07:39:48;;;;;;;;;;;18.60;73.70;;;;;;5092110;28;19928;-66
2023/09/04 07:42:13;;;;;;;;;;;18.60;73.70;;;;;;5108443;27;19934;-68
2023/09/04 07:44:39;;;;;;;;;;;18.60;73.70;;;;;;5092087;28;19999;-68
2023/09/04 07:47:04;;;;;;;;;;;18.60;73.70;;;;;;5091276;27;20391;-67
2023/09/04 07:49:30;;;;;;;;;;;18.60;73.60;;;;;;5075319;28;19988;-74
2023/09/04 07:51:55;;;;;;;;;;;18.60;73.70;;;;;;5080224;28;19924;-69
2023/09/04 07:54:21;;;;;;;;;;;18.60;73.80;;;;;;5074046;28;20409;-68
2023/09/04 07:56:46;;;;;;;;;;;18.60;73.80;;;;;;5083101;28;19927;-69
2023/09/04 07:59:12;;;;;;;;;;;18.60;74.70;;;;;;5071313;28;20011;-68
2023/09/04 08:01:38;;;;;;;;;;;18.60;74.80;;;;;;5090049;28;19923;-67
2023/09/04 08:04:04;;;;;;;;;;;18.60;74.30;;;;;;5076346;28;20023;-67
2023/09/04 08:06:29;;;;;;;;;;;18.70;74.60;;;;;;5096244;28;20050;-67
2023/09/04 08:08:55;;;;;;;;;;;18.70;74.70;;;;;;5111028;27;19927;-68
2023/09/04 08:11:20;;;;;;;;;;;18.70;74.80;;;;;;5080086;28;19970;-73
2023/09/04 08:13:46;;;;;;;;;;;18.70;74.80;;;;;;5080290;28;20130;-68
2023/09/04 08:16:11;;;;;;;;;;;18.80;74.90;;;;;;5078818;28;19977;-70
2023/09/04 08:18:37;;;;;;;;;;;18.80;75.00;;;;;;5110681;27;19928;-73
2023/09/04 08:21:03;;;;;;;;;;;18.80;75.00;;;;;;5096941;28;19927;-68
2023/09/04 08:23:28;;;;;;;;;;;18.80;75.10;;;;;;5096552;28;20202;-68
2023/09/04 08:25:58;;;;;;;;;;;18.90;75.10;;;;;;5078469;28;19924;-71
2023/09/04 08:28:24;;;;;;;;;;;18.90;75.10;;;;;;5100194;28;20023;-73
2023/09/04 08:30:50;;;;;;;;;;;18.90;75.10;;;;;;5097330;28;20022;-75
2023/09/04 08:33:15;;;;;;;;;;;18.90;75.10;;;;;;5081090;28;19967;-76
2023/09/04 08:35:41;;;;;;;;;;;18.90;75.10;;;;;;5076879;28;19926;-72
2023/09/04 08:38:07;;;;;;;;;;;18.90;75.10;;;;;;5091304;28;19924;-72
2023/09/04 08:40:32;;;;;;;;;;;18.90;75.10;;;;;;5078101;28;19931;-72
2023/09/04 08:42:58;;;;;;;;;;;18.90;75.10;;;;;;5083120;28;19919;-76
2023/09/04 08:45:24;;;;;;;;;;;18.90;75.10;;;;;;5094307;28;19927;-72
2023/09/04 08:47:50;;;;;;;;;;;18.90;75.20;;;;;;5081122;28;19952;-72
2023/09/04 08:50:16;;;;;;;;;;;18.90;75.20;;;;;;5078682;28;19959;-72
2023/09/04 08:52:41;;;;;;;;;;;18.90;75.30;;;;;;5113165;27;19928;-72
2023/09/04 08:55:08;;;;;;;;;;;18.90;75.30;;;;;;5094383;28;19935;-71
2023/09/04 08:57:33;;;;;;;;;;;19.00;75.40;;;;;;5080973;28;20014;-72
2023/09/04 08:59:59;;;;;;;;;;;19.00;75.50;;;;;;5084061;28;20008;-70
2023/09/04 09:02:25;;;;;;;;;;;19.00;75.50;;;;;;5080871;28;19927;-70
2023/09/04 09:04:51;;;;;;;;;;;19.00;75.60;;;;;;5097533;27;19924;-72
2023/09/04 09:07:18;;;;;;;;;;;19.00;75.60;;;;;;5091939;28;19929;-71
2023/09/04 09:09:47;;;;;;;;;;;19.10;75.60;;;;;;5076872;28;20006;-71
2023/09/04 09:12:12;;;;;;;;;;;19.10;75.60;;;;;;5094086;28;19934;-72
2023/09/04 09:14:38;;;;;;;;;;;19.10;75.60;;;;;;5082929;28;20018;-70
2023/09/04 09:17:05;;;;;;;;;;;19.10;75.60;;;;;;5096811;28;19924;-69
2023/09/04 09:19:32;;;;;;;;;;;19.10;75.60;;;;;;5082969;28;19920;-66
2023/09/04 09:22:14;;;;;;;;;;;19.10;75.60;;;;;;5078217;28;20014;-67
2023/09/04 09:24:56;;;;;;;;;;;19.10;75.50;;;;;;5093343;28;19929;-76
2023/09/04 09:27:24;;;;;;;;;;;19.10;75.50;;;;;;5082071;28;19920;-75
2023/09/04 09:29:50;;;;;;;;;;;19.10;75.40;;;;;;5106169;27;19928;-71
2023/09/04 09:32:17;;;;;;;;;;;19.20;75.40;;;;;;5074878;28;19920;-73
2023/09/04 09:34:50;;;;;;;;;;;19.20;75.40;;;;;;5077178;28;19936;-69
2023/09/04 09:37:15;;;;;;;;;;;19.20;75.40;;;;;;5094518;28;19939;-70
2023/09/04 09:39:41;;;;;;;;;;;19.20;75.40;;;;;;5076338;28;19928;-72
2023/09/04 09:42:07;;;;;;;;;;;19.30;75.50;;;;;;5111285;28;19968;-75
2023/09/04 09:44:32;;;;;;;;;;;19.30;75.50;;;;;;5076404;28;19924;-70
2023/09/04 09:46:58;;;;;;;;;;;19.40;75.50;;;;;;5083964;28;19980;-69
2023/09/04 09:49:23;;;;;;;;;;;19.40;75.50;;;;;;5083838;28;20439;-71
2023/09/04 09:51:51;;;;;;;;;;;19.50;75.60;;;;;;5076547;28;20397;-74
2023/09/04 09:54:32;;;;;;;;;;;19.50;75.30;;;;;;5094307;28;19928;-70
2023/09/04 09:56:57;;;;;;;;;;;19.60;75.30;;;;;;5084356;28;19928;-71
2023/09/04 09:59:23;;;;;;;;;;;19.60;75.30;;;;;;5082863;28;20052;-72
2023/09/04 10:01:49;;;;;;;;;;;19.60;75.30;;;;;;5080577;28;20271;-73
2023/09/04 10:04:15;;;;;;;;;;;19.60;75.10;;;;;;5079973;28;19924;-70
2023/09/04 10:06:42;;;;;;;;;;;19.60;75.20;;;;;;5084690;27;19961;-68
2023/09/04 10:09:09;;;;;;;;;;;19.60;75.00;;;;;;5100704;28;20006;-70
2023/09/04 10:11:39;;;;;;;;;;;19.70;75.10;;;;;;5092707;28;19920;-68
2023/09/04 10:14:15;;;;;;;;;;;19.70;75.10;;;;;;5088666;28;20019;-74
2023/09/04 10:16:46;;;;;;;;;;;19.70;75.20;;;;;;5082035;28;19981;-68
2023/09/04 10:19:13;;;;;;;;;;;19.70;75.40;;;;;;5097919;28;19931;-69
2023/09/04 10:21:42;;;;;;;;;;;19.70;75.10;;;;;;5087041;28;20068;-71
2023/09/04 10:24:10;;;;;;;;;;;19.70;75.00;;;;;;5081800;28;19924;-69
2023/09/04 10:26:41;;;;;;;;;;;19.70;74.80;;;;;;5077865;28;19924;-68
2023/09/04 10:29:10;;;;;;;;;;;19.70;74.70;;;;;;5076465;28;19924;-70
2023/09/04 10:31:37;;;;;;;;;;;19.70;74.90;;;;;;5080196;28;19927;-69
2023/09/04 10:34:03;;;;;;;;;;;19.70;74.90;;;;;;5079770;28;19928;-69
2023/09/04 10:36:29;;;;;;;;;;;19.80;75.20;;;;;;5081767;28;20359;-67
2023/09/04 10:38:55;;;;;;;;;;;19.80;75.20;;;;;;5104472;27;20011;-68
2023/09/04 10:41:22;;;;;;;;;;;19.80;75.20;;;;;;5085000;28;19943;-72
2023/09/04 10:43:47;;;;;;;;;;;19.80;75.40;;;;;;5075958;28;20014;-73
2023/09/04 10:46:13;;;;;;;;;;;19.80;75.30;;;;;;5079546;28;20019;-68
2023/09/04 10:48:40;;;;;;;;;;;19.80;75.10;;;;;;5078743;28;20310;-70
2023/09/04 10:51:26;;;;;;;;;;;19.90;75.20;;;;;;5098612;27;19973;-67
2023/09/04 10:53:52;;;;;;;;;;;19.80;75.30;;;;;;5080411;28;19957;-68
2023/09/04 10:56:17;;;;;;;;;;;19.90;75.50;;;;;;5080671;28;19923;-68
2023/09/04 10:58:57;;;;;;;;;;;19.90;75.50;;;;;;5078006;28;20287;-66
2023/09/04 11:01:38;;;;;;;;;;;19.90;75.40;;;;;;5086135;28;19932;-68
2023/09/04 11:04:07;;;;;;;;;;;20.00;75.50;;;;;;5081095;28;20402;-68
2023/09/04 11:06:34;;;;;;;;;;;20.00;75.40;;;;;;5082754;28;19919;-69
2023/09/04 11:09:00;;;;;;;;;;;20.00;75.50;;;;;;5108393;27;19935;-70
2023/09/04 11:11:26;;;;;;;;;;;20.00;75.50;;;;;;5097905;27;19982;-68
2023/09/04 11:13:56;;;;;;;;;;;20.00;75.50;;;;;;5079661;28;20409;-68
2023/09/04 11:16:23;;;;;;;;;;;20.00;75.70;;;;;;5079663;28;19935;-68
2023/09/04 11:18:59;;;;;;;;;;;20.10;75.60;;;;;;5094623;28;19954;-69
2023/09/04 11:21:29;;;;;;;;;;;20.10;75.50;;;;;;5115044;27;20246;-69
2023/09/04 11:23:55;;;;;;;;;;;20.10;75.60;;;;;;5082437;28;20379;-69
2023/09/04 11:26:21;;;;;;;;;;;20.10;75.30;;;;;;5096408;28;19924;-70
2023/09/04 11:28:46;;;;;;;;;;;20.00;75.30;;;;;;5082575;28;19969;-69
2023/09/04 11:31:12;;;;;;;;;;;20.00;75.30;;;;;;5093954;28;19924;-74
2023/09/04 11:33:38;;;;;;;;;;;20.00;75.30;;;;;;5074279;28;20407;-69
2023/09/04 11:36:04;;;;;;;;;;;19.90;75.30;;;;;;5081623;27;19923;-71
2023/09/04 11:38:31;;;;;;;;;;;19.80;75.20;;;;;;5078036;28;20034;-74
2023/09/04 11:40:57;;;;;;;;;;;19.80;75.20;;;;;;5077572;28;20408;-74
2023/09/04 11:43:23;;;;;;;;;;;19.80;75.20;;;;;;5082985;28;19976;-70
2023/09/04 11:45:55;;;;;;;;;;;19.70;75.30;;;;;;5097043;27;19924;-75
2023/09/04 11:48:22;;;;;;;;;;;19.80;75.50;;;;;;5095523;28;20378;-70
2023/09/04 11:50:48;;;;;;;;;;;19.70;75.60;;;;;;5075957;28;19920;-69
2023/09/04 11:53:14;;;;;;;;;;;19.80;75.60;;;;;;5109945;27;19924;-74
2023/09/04 11:55:39;;;;;;;;;;;19.80;75.80;;;;;;5078106;28;20154;-70
2023/09/04 11:58:05;;;;;;;;;;;19.80;75.70;;;;;;5075651;28;19952;-71
2023/09/04 12:00:30;;;;;;;;;;;19.80;75.90;;;;;;5110251;27;20422;-68
2023/09/04 12:02:56;;;;;;;;;;;19.90;75.90;;;;;;5094034;28;19968;-71
2023/09/04 12:05:21;;;;;;;;;;;19.90;76.10;;;;;;5095481;28;19931;-70
2023/09/04 12:07:46;;;;;;;;;;;19.90;76.30;;;;;;5079595;28;19928;-67
2023/09/04 12:10:12;;;;;;;;;;;20.00;76.30;;;;;;5095002;27;19989;-69
2023/09/04 12:12:38;;;;;;;;;;;20.00;76.50;;;;;;5092399;27;20036;-68
2023/09/04 12:15:04;;;;;;;;;;;20.00;76.30;;;;;;5079168;28;19938;-67
2023/09/04 12:17:30;;;;;;;;;;;20.10;76.40;;;;;;5077945;28;19928;-71
2023/09/04 12:19:56;;;;;;;;;;;20.10;76.40;;;;;;5074149;27;19946;-73
2023/09/04 12:22:21;;;;;;;;;;;20.20;76.30;;;;;;5103200;27;19931;-73
2023/09/04 12:25:06;;;;;;;;;;;20.10;76.20;;;;;;5088917;27;19946;-66
2023/09/04 12:27:37;;;;;;;;;;;20.20;76.10;;;;;;5107639;27;19930;-67
2023/09/04 12:30:04;;;;;;;;;;;20.20;76.00;;;;;;5091190;27;19978;-67
2023/09/04 12:32:32;;;;;;;;;;;20.20;76.10;;;;;;5086460;27;20261;-67
2023/09/04 12:35:01;;;;;;;;;;;20.10;76.00;;;;;;5087386;28;20441;-71
2023/09/04 12:37:31;;;;;;;;;;;20.10;76.20;;;;;;5069249;28;19963;-73
2023/09/04 12:39:56;;;;;;;;;;;20.10;76.40;;;;;;5070902;28;19934;-67
2023/09/04 12:42:22;;;;;;;;;;;20.20;76.80;;;;;;5075714;28;20368;-69
2023/09/04 12:44:48;;;;;;;;;;;20.30;76.80;;;;;;5073844;28;19980;-73
2023/09/04 12:47:13;;;;;;;;;;;20.30;76.80;;;;;;5072007;28;19931;-68
2023/09/04 12:49:39;;;;;;;;;;;20.40;76.70;;;;;;5092647;28;19923;-68
2023/09/04 12:52:04;;;;;;;;;;;20.50;76.70;;;;;;5074303;28;20016;-69
2023/09/04 12:54:30;;;;;;;;;;;20.50;76.60;;;;;;5075213;28;19935;-69
2023/09/04 12:56:55;;;;;;;;;;;20.60;76.50;;;;;;5072600;28;19927;-67
2023/09/04 12:59:21;;;;;;;;;;;20.60;76.40;;;;;;5067354;28;19924;-67
2023/09/04 13:01:47;;;;;;;;;;;20.60;76.40;;;;;;5063592;28;19920;-67
2023/09/04 13:04:12;;;;;;;;;;;20.70;76.20;;;;;;5092792;28;20327;-67
2023/09/04 13:06:38;;;;;;;;;;;20.70;75.90;;;;;;5074346;28;20109;-67
2023/09/04 13:09:03;;;;;;;;;;;20.70;75.70;;;;;;5073440;28;20461;-67
2023/09/04 13:11:29;;;;;;;;;;;20.70;75.60;;;;;;5104804;27;19927;-67
2023/09/04 13:13:54;;;;;;;;;;;20.70;75.60;;;;;;5112879;27;19980;-67
2023/09/04 13:16:21;;;;;;;;;;;20.70;75.40;;;;;;5086767;28;19919;-67
2023/09/04 13:18:47;;;;;;;;;;;20.70;75.40;;;;;;5104882;28;19931;-66
2023/09/04 13:21:12;;;;;;;;;;;20.70;75.40;;;;;;5089399;27;19931;-66
2023/09/04 13:23:38;;;;;;;;;;;20.80;75.30;;;;;;5098980;28;19919;-67
2023/09/04 13:26:03;;;;;;;;;;;20.80;75.40;;;;;;5096246;28;19984;-66
2023/09/04 13:28:29;;;;;;;;;;;20.70;75.60;;;;;;5110245;27;20322;-66
2023/09/04 13:30:54;;;;;;;;;;;20.80;75.60;;;;;;5098347;28;19919;-67
2023/09/04 13:33:20;;;;;;;;;;;20.70;75.80;;;;;;5101073;28;19935;-66
2023/09/04 13:35:45;;;;;;;;;;;20.70;75.90;;;;;;5117103;28;20015;-65
2023/09/04 13:38:11;;;;;;;;;;;20.70;76.00;;;;;;5095969;28;19919;-67
2023/09/04 13:40:36;;;;;;;;;;;20.70;76.20;;;;;;5097077;28;19919;-67
2023/09/04 13:43:02;;;;;;;;;;;20.70;76.30;;;;;;5091358;28;19990;-67
2023/09/04 13:45:27;;;;;;;;;;;20.70;75.70;;;;;;5091910;28;19919;-67
2023/09/04 13:47:53;;;;;;;;;;;20.70;75.10;;;;;;5091110;28;20000;-68
2023/09/04 13:50:18;;;;;;;;;;;20.70;74.70;;;;;;5093228;28;20014;-67
2023/09/04 13:52:44;;;;;;;;;;;20.70;74.40;;;;;;5094811;28;19919;-67
2023/09/04 13:55:10;;;;;;;;;;;20.70;74.30;;;;;;5089741;28;20099;-68
2023/09/04 13:57:35;;;;;;;;;;;20.80;74.20;;;;;;5090880;28;20409;-69
2023/09/04 14:00:01;;;;;;;;;;;20.80;74.20;;;;;;5089904;28;20409;-67
2023/09/04 14:02:26;;;;;;;;;;;20.80;74.30;;;;;;5085081;28;19969;-69
2023/09/04 14:04:52;;;;;;;;;;;20.80;74.20;;;;;;5086547;28;20409;-69
2023/09/04 14:07:17;;;;;;;;;;;20.90;73.90;;;;;;5089864;28;19923;-70
2023/09/04 14:09:43;;;;;;;;;;;20.90;73.80;;;;;;5089431;28;19920;-70
2023/09/04 14:12:09;;;;;;;;;;;20.90;73.60;;;;;;5111349;28;19955;-69
2023/09/04 14:14:35;;;;;;;;;;;20.90;73.50;;;;;;5100209;28;20026;-68